Time;durP1;ratioP1;P1;durP2;ratioP2;P2;SDS_P1;SDS_P2;PMS_P1;PMS_P2;Temp;Humidity;BMP_temperature;BMP_pressure;BME280_temperature;BME280_humidity;BME280_pressure;Samples;Min_cycle;Max_cycle;Signal;HPM_P1;HPM_P2
2022/05/29 00:01:01;;;;;;;4.55;1.92;;;;;;;8.78;68.20;101046.69;4947405;28;20431;-71
2022/05/29 00:03:26;;;;;;;5.43;1.85;;;;;;;8.69;67.79;101042.97;4929292;28;20084;-71
2022/05/29 00:05:52;;;;;;;4.28;1.88;;;;;;;8.53;68.64;101042.44;4928733;28;21458;-73
2022/05/29 00:08:23;;;;;;;3.95;1.63;;;;;;;8.58;68.60;101049.03;4963071;28;20035;-71
2022/05/29 00:10:48;;;;;;;4.22;1.60;;;;;;;8.71;68.47;101045.47;4934536;28;20088;-70
2022/05/29 00:13:14;;;;;;;5.05;1.77;;;;;;;8.91;66.86;101042.16;4970089;28;20850;-70
2022/05/29 00:15:39;;;;;;;3.25;1.60;;;;;;;8.65;67.70;101045.97;4967449;28;20294;-72
2022/05/29 00:18:06;;;;;;;3.67;1.80;;;;;;;8.43;68.65;101039.63;4966130;28;20022;-72
2022/05/29 00:20:32;;;;;;;6.13;1.90;;;;;;;8.37;68.95;101045.38;4952561;28;20129;-71
2022/05/29 00:22:57;;;;;;;3.00;1.80;;;;;;;8.46;68.87;101036.81;4950477;28;20102;-70
2022/05/29 00:25:23;;;;;;;6.70;1.88;;;;;;;8.48;68.50;101040.16;4950694;28;20045;-71
2022/05/29 00:27:48;;;;;;;4.13;1.75;;;;;;;8.46;68.69;101039.44;4965738;28;20009;-72
2022/05/29 00:30:14;;;;;;;3.08;1.73;;;;;;;8.62;68.13;101043.56;4947935;28;20049;-71
2022/05/29 00:32:39;;;;;;;3.47;1.85;;;;;;;8.46;68.47;101038.59;4948027;28;20041;-71
2022/05/29 00:35:05;;;;;;;3.35;1.67;;;;;;;8.14;69.52;101034.75;4964548;28;20035;-71
2022/05/29 00:37:33;;;;;;;2.40;1.52;;;;;;;8.41;69.03;101034.47;4965009;28;20010;-71
2022/05/29 00:39:59;;;;;;;4.78;1.55;;;;;;;8.16;69.75;101030.19;4948605;28;20904;-71
2022/05/29 00:42:25;;;;;;;3.25;1.80;;;;;;;8.18;69.50;101030.06;4965372;28;20359;-71
2022/05/29 00:44:50;;;;;;;6.43;1.88;;;;;;;8.02;70.14;101027.72;4929701;28;20861;-72
2022/05/29 00:47:18;;;;;;;6.90;1.80;;;;;;;7.91;70.39;101025.91;4948100;28;20339;-72
2022/05/29 00:49:44;;;;;;;3.85;1.40;;;;;;;7.91;70.46;101024.09;4967010;28;20121;-72
2022/05/29 00:52:16;;;;;;;3.13;1.80;;;;;;;7.81;70.71;101012.56;4963813;28;20358;-71
2022/05/29 00:54:55;;;;;;;2.85;1.60;;;;;;;7.73;71.56;101026.28;4966930;28;20030;-72
2022/05/29 00:57:31;;;;;;;2.15;1.50;;;;;;;7.81;71.31;101017.84;4965833;28;20430;-71
2022/05/29 01:00:00;;;;;;;2.63;1.83;;;;;;;7.71;71.42;101011.53;4933078;28;20009;-71
2022/05/29 01:02:25;;;;;;;4.18;1.50;;;;;;;7.80;71.80;101010.00;4951943;28;20551;-72
2022/05/29 01:04:51;;;;;;;5.25;1.80;;;;;;;7.69;71.86;101010.81;4933358;28;21044;-72
2022/05/29 01:07:16;;;;;;;4.53;1.63;;;;;;;7.94;71.01;101009.88;4947975;28;20071;-72
2022/05/29 01:09:43;;;;;;;4.80;1.73;;;;;;;8.06;70.53;101002.84;4967846;28;20019;-71
2022/05/29 01:12:31;;;;;;;4.10;1.70;;;;;;;8.05;69.64;101006.41;4946142;28;20840;-72
2022/05/29 01:14:59;;;;;;;4.55;1.80;;;;;;;8.10;69.69;101008.72;4957378;28;20041;-72
2022/05/29 01:18:10;;;;;;;4.15;1.60;;;;;;;8.13;69.76;101001.41;4964967;28;20728;-72
2022/05/29 01:20:55;;;;;;;4.03;1.40;;;;;;;8.12;69.59;101005.00;4942028;28;20009;-72
2022/05/29 01:23:58;;;;;;;2.45;1.70;;;;;;;7.79;70.71;101000.47;4965083;28;20281;-72
2022/05/29 01:26:39;;;;;;;3.78;1.83;;;;;;;7.76;70.96;101001.50;4968151;28;20026;-71
2022/05/29 01:29:05;;;;;;;4.65;1.70;;;;;;;7.85;70.57;100994.72;4968176;28;20702;-72
2022/05/29 01:31:50;;;;;;;4.93;1.83;;;;;;;7.84;71.00;100999.16;4966797;28;20051;-72
2022/05/29 01:34:43;;;;;;;3.42;2.10;;;;;;;8.04;70.81;100996.84;4967873;28;20076;-72
2022/05/29 01:37:24;;;;;;;3.75;1.80;;;;;;;7.88;71.05;100998.00;4955960;28;20125;-71
2022/05/29 01:40:01;;;;;;;4.55;2.05;;;;;;;7.73;71.54;100991.22;4941773;28;20053;-71
2022/05/29 01:42:32;;;;;;;4.30;2.03;;;;;;;7.52;72.85;101007.59;4951409;28;20141;-73
2022/05/29 01:45:01;;;;;;;3.03;1.65;;;;;;;7.54;72.93;100997.81;4945307;28;20033;-72
2022/05/29 01:47:31;;;;;;;3.88;1.73;;;;;;;7.49;72.90;100999.94;4967231;28;20941;-71
2022/05/29 01:50:03;;;;;;;5.43;1.95;;;;;;;7.38;73.10;101002.50;4958796;28;20176;-71
2022/05/29 01:52:32;;;;;;;4.05;1.80;;;;;;;7.41;73.54;101002.28;4938125;28;20288;-72
2022/05/29 01:55:07;;;;;;;2.92;1.80;;;;;;;7.40;74.03;101003.22;4954831;28;20027;-70
2022/05/29 01:57:37;;;;;;;4.95;2.00;;;;;;;7.47;73.94;100990.47;4938174;28;20112;-72
2022/05/29 02:00:09;;;;;;;5.40;2.03;;;;;;;7.51;74.03;100994.56;4939288;28;20975;-72
2022/05/29 02:02:43;;;;;;;3.67;1.92;;;;;;;7.64;74.21;100991.88;4920731;28;20922;-72
2022/05/29 02:05:11;;;;;;;2.75;1.80;;;;;;;7.91;73.21;100984.59;4963506;28;20034;-73
2022/05/29 02:07:49;;;;;;;3.25;1.90;;;;;;;7.89;73.22;100985.63;4957364;28;20793;-72
2022/05/29 02:10:44;;;;;;;2.20;1.60;;;;;;;7.79;73.25;100985.47;4934030;28;20037;-73
2022/05/29 02:13:24;;;;;;;5.57;1.60;;;;;;;7.67;73.60;100981.09;4944328;28;20318;-71
2022/05/29 02:15:58;;;;;;;2.95;1.77;;;;;;;7.58;73.65;100979.97;4967438;28;20448;-73
2022/05/29 02:18:58;;;;;;;4.80;1.80;;;;;;;7.56;74.18;100969.56;4949431;28;20346;-71
2022/05/29 02:21:27;;;;;;;2.95;1.70;;;;;;;7.80;73.42;100973.13;4953695;28;20034;-70
2022/05/29 02:23:53;;;;;;;3.22;1.80;;;;;;;7.67;73.41;100976.69;4932017;28;20379;-72
2022/05/29 02:26:21;;;;;;;3.05;1.88;;;;;;;7.56;73.49;100964.31;4947875;28;20023;-72
2022/05/29 02:28:49;;;;;;;3.28;1.90;;;;;;;7.48;73.68;100969.28;4931078;28;20039;-72
2022/05/29 02:32:01;;;;;;;6.32;1.80;;;;;;;7.49;73.75;100965.69;4932470;28;20910;-73
2022/05/29 02:34:45;;;;;;;2.28;1.90;;;;;;;7.32;74.43;100971.31;4929342;28;20088;-72
2022/05/29 02:37:19;;;;;;;2.05;1.95;;;;;;;7.48;74.19;100969.28;4915943;28;20007;-72
2022/05/29 02:40:02;;;;;;;4.80;2.00;;;;;;;7.47;73.57;100964.13;4931986;28;20041;-73
2022/05/29 02:42:55;;;;;;;3.08;1.88;;;;;;;7.32;74.13;100958.16;4948060;28;20684;-72
2022/05/29 02:45:24;;;;;;;3.58;2.10;;;;;;;7.21;74.64;100967.69;4954431;28;20073;-73
2022/05/29 02:47:55;;;;;;;3.97;2.20;;;;;;;7.22;74.82;100966.72;4968165;28;21115;-72
2022/05/29 02:50:27;;;;;;;3.50;1.90;;;;;;;7.24;74.70;100953.47;4957912;28;20491;-75
2022/05/29 02:52:53;;;;;;;5.03;2.08;;;;;;;7.18;75.16;100959.19;4943811;28;20117;-71
2022/05/29 02:55:20;;;;;;;3.28;2.40;;;;;;;7.21;74.94;100951.88;4948112;28;20037;-72
2022/05/29 02:57:45;;;;;;;2.55;2.08;;;;;;;7.30;74.46;100952.19;4948903;28;20796;-71
2022/05/29 03:00:12;;;;;;;5.75;2.10;;;;;;;7.30;74.29;100962.72;4913452;28;20014;-72
2022/05/29 03:02:58;;;;;;;5.97;2.25;;;;;;;7.29;74.47;100961.88;4931449;28;20051;-72
2022/05/29 03:05:28;;;;;;;4.18;2.10;;;;;;;7.22;74.65;100958.84;4961547;28;20456;-70
2022/05/29 03:08:20;;;;;;;2.55;1.90;;;;;;;7.20;75.37;100952.00;4957940;28;20049;-71
2022/05/29 03:10:51;;;;;;;4.32;2.03;;;;;;;7.14;75.71;100958.53;4965857;28;20010;-71
2022/05/29 03:13:28;;;;;;;2.22;1.80;;;;;;;7.11;75.96;100953.50;4967963;28;20121;-71
2022/05/29 03:16:07;;;;;;;4.10;2.33;;;;;;;7.11;75.78;100950.03;4950742;28;20015;-71
2022/05/29 03:18:53;;;;;;;3.05;2.15;;;;;;;7.06;76.15;100947.72;4950006;28;20015;-71
2022/05/29 03:21:27;;;;;;;5.88;2.10;;;;;;;7.10;76.03;100949.19;4930902;28;21022;-71
2022/05/29 03:24:15;;;;;;;4.38;2.25;;;;;;;7.06;76.06;100950.34;4946288;28;20015;-72
2022/05/29 03:26:54;;;;;;;4.63;2.03;;;;;;;7.03;76.37;100950.56;4946869;28;20923;-73
2022/05/29 03:29:27;;;;;;;2.17;1.95;;;;;;;7.01;76.96;100948.03;4961935;28;20019;-73
2022/05/29 03:31:53;;;;;;;4.00;2.00;;;;;;;7.07;77.06;100945.94;4930772;28;20006;-72
2022/05/29 03:34:18;;;;;;;3.28;2.05;;;;;;;7.13;76.98;100945.50;4953943;28;20071;-71
2022/05/29 03:36:45;;;;;;;2.70;1.92;;;;;;;7.15;77.03;100944.44;4949630;28;20010;-71
2022/05/29 03:39:11;;;;;;;4.05;2.35;;;;;;;7.20;77.48;100934.41;4933593;28;20086;-72
2022/05/29 03:41:44;;;;;;;2.63;2.42;;;;;;;7.33;77.50;100942.28;4948259;28;20037;-72
2022/05/29 03:44:10;;;;;;;4.00;2.05;;;;;;;7.46;76.84;100939.59;4966382;28;20056;-71
2022/05/29 03:46:35;;;;;;;6.25;2.50;;;;;;;7.72;76.04;100936.84;4950609;28;20472;-71
2022/05/29 03:49:01;;;;;;;2.45;2.05;;;;;;;7.84;75.39;100941.19;4964306;28;20857;-72
2022/05/29 03:51:26;;;;;;;3.42;2.10;;;;;;;7.78;75.37;100941.63;4930657;28;20010;-73
2022/05/29 03:53:52;;;;;;;4.30;2.50;;;;;;;7.89;75.03;100940.84;4948512;28;20015;-71
2022/05/29 03:56:17;;;;;;;5.05;2.30;;;;;;;7.79;75.77;100943.31;4934229;28;20027;-71
2022/05/29 03:58:42;;;;;;;4.75;2.20;;;;;;;7.66;76.22;100937.31;4948194;28;21230;-72
2022/05/29 04:01:08;;;;;;;4.13;2.50;;;;;;;7.68;76.14;100940.66;4927730;28;20011;-72
2022/05/29 04:03:34;;;;;;;4.82;2.30;;;;;;;7.74;76.30;100929.66;4946091;28;20282;-70
2022/05/29 04:05:59;;;;;;;2.80;1.83;;;;;;;7.71;76.80;100938.63;4953059;28;20023;-71
2022/05/29 04:13:53;;;;;;;3.97;1.95;;;;;;;8.16;76.03;100937.09;4947280;28;20038;-71
2022/05/29 04:16:18;;;;;;;2.78;2.00;;;;;;;8.25;75.72;100933.78;4949267;28;20019;-71
2022/05/29 04:18:44;;;;;;;6.22;2.00;;;;;;;8.44;75.67;100927.91;4966551;28;20890;-73
2022/05/29 04:21:09;;;;;;;2.85;2.10;;;;;;;8.36;75.95;100923.25;4964230;28;20014;-73
2022/05/29 04:23:34;;;;;;;4.32;2.17;;;;;;;8.33;75.44;100923.44;4948010;28;20026;-73
2022/05/29 04:26:00;;;;;;;3.28;2.17;;;;;;;8.35;75.72;100912.81;4946579;28;20038;-73
2022/05/29 04:28:25;;;;;;;2.50;2.30;;;;;;;8.34;76.22;100921.66;4967725;28;21071;-71
2022/05/29 04:30:51;;;;;;;4.93;2.10;;;;;;;8.36;76.12;100911.84;4931782;28;20306;-72
2022/05/29 04:33:16;;;;;;;4.95;2.33;;;;;;;8.42;76.26;100916.66;4965009;28;20201;-72
2022/05/29 04:35:44;;;;;;;2.85;2.10;;;;;;;8.39;75.88;100908.94;4965793;28;20844;-72
2022/05/29 04:38:09;;;;;;;6.28;2.30;;;;;;;8.38;76.05;100912.56;4949670;28;20068;-70
2022/05/29 04:40:41;;;;;;;3.85;2.13;;;;;;;8.44;76.36;100901.53;4949338;28;20707;-72
2022/05/29 04:43:07;;;;;;;2.50;2.30;;;;;;;8.50;76.88;100902.88;4951539;28;20023;-72
2022/05/29 04:45:32;;;;;;;2.60;1.90;;;;;;;8.71;76.54;100905.66;4964000;28;20096;-72
2022/05/29 04:47:58;;;;;;;5.53;2.08;;;;;;;8.88;76.10;100904.31;4945143;28;20334;-70
2022/05/29 04:50:23;;;;;;;2.95;2.25;;;;;;;8.97;75.49;100902.75;4939613;28;20033;-71
2022/05/29 04:52:50;;;;;;;4.43;2.60;;;;;;;9.07;75.40;100903.69;4949618;28;20173;-72
2022/05/29 04:55:16;;;;;;;2.30;2.10;;;;;;;9.19;74.93;100900.03;4934090;28;20022;-72
2022/05/29 04:57:42;;;;;;;6.90;2.42;;;;;;;9.32;74.86;100901.69;4965822;28;20623;-71
2022/05/29 05:00:08;;;;;;;4.13;2.63;;;;;;;9.39;74.77;100900.25;4968690;28;20318;-73
2022/05/29 05:02:33;;;;;;;4.78;2.22;;;;;;;9.41;74.55;100903.59;4947575;28;21088;-73
2022/05/29 05:04:58;;;;;;;5.70;2.95;;;;;;;9.50;74.60;100900.19;4965306;28;20014;-73
2022/05/29 05:07:24;;;;;;;5.45;3.20;;;;;;;9.56;73.76;100897.06;4963867;28;20026;-74
2022/05/29 05:09:49;;;;;;;5.00;3.28;;;;;;;9.68;72.44;100904.94;4947971;28;20002;-73
2022/05/29 05:12:14;;;;;;;5.80;3.13;;;;;;;9.80;73.18;100901.28;4945248;28;20100;-73
2022/05/29 05:14:40;;;;;;;6.60;3.45;;;;;;;9.90;72.07;100890.75;4947254;28;20695;-74
2022/05/29 05:17:05;;;;;;;4.22;3.03;;;;;;;10.00;72.22;100894.31;4950006;28;20129;-75
2022/05/29 05:19:31;;;;;;;6.85;3.17;;;;;;;10.09;72.04;100896.19;4967670;28;20033;-74
2022/05/29 05:22:00;;;;;;;7.57;2.97;;;;;;;10.20;71.84;100897.91;4949600;28;20711;-73
2022/05/29 05:24:25;;;;;;;5.53;3.40;;;;;;;10.22;71.36;100898.63;4949511;28;20085;-74
2022/05/29 05:26:50;;;;;;;4.43;2.97;;;;;;;10.28;70.32;100895.47;4977261;28;20002;-73
2022/05/29 05:29:16;;;;;;;5.68;2.95;;;;;;;10.36;71.31;100896.63;4984645;28;20022;-72
2022/05/29 05:31:41;;;;;;;5.13;3.13;;;;;;;10.39;71.43;100902.53;4985171;28;19998;-72
2022/05/29 05:34:06;;;;;;;10.80;3.47;;;;;;;10.44;70.23;100894.19;4967630;28;20022;-73
2022/05/29 05:36:32;;;;;;;5.32;3.10;;;;;;;10.51;69.59;100892.69;4984480;28;20021;-73
2022/05/29 05:38:57;;;;;;;4.28;2.90;;;;;;;10.65;69.71;100894.97;4987608;28;20046;-73
2022/05/29 05:41:23;;;;;;;3.30;2.90;;;;;;;10.66;69.45;100893.16;4966025;28;20011;-74
2022/05/29 05:43:48;;;;;;;6.40;3.50;;;;;;;10.65;69.31;100888.84;4986669;28;20027;-72
2022/05/29 05:46:14;;;;;;;5.45;3.22;;;;;;;10.58;69.09;100885.88;4985003;28;20845;-73
2022/05/29 05:48:40;;;;;;;4.65;2.95;;;;;;;10.57;69.34;100884.19;4968843;28;20026;-74
2022/05/29 05:51:06;;;;;;;4.80;3.22;;;;;;;10.58;69.32;100880.59;4969850;28;20018;-73
2022/05/29 05:53:31;;;;;;;5.65;3.17;;;;;;;10.64;69.65;100879.22;4971421;28;20026;-72
2022/05/29 05:55:57;;;;;;;8.20;3.30;;;;;;;10.69;69.41;100894.69;4962194;28;20254;-74
2022/05/29 05:58:22;;;;;;;6.35;3.38;;;;;;;10.73;68.82;100883.72;4968938;28;20022;-73
2022/05/29 06:00:48;;;;;;;5.13;3.03;;;;;;;10.81;69.04;100888.31;4947027;28;20033;-73
2022/05/29 06:03:13;;;;;;;5.97;3.53;;;;;;;10.97;69.22;100874.56;4951731;28;20026;-73
2022/05/29 06:05:38;;;;;;;6.80;3.47;;;;;;;11.08;68.48;100881.56;4951665;28;20349;-73
2022/05/29 06:08:04;;;;;;;8.52;3.60;;;;;;;11.24;68.33;100878.38;4970414;28;20022;-73
2022/05/29 06:10:29;;;;;;;3.75;3.25;;;;;;;11.33;68.23;100886.31;4970490;28;20460;-73
2022/05/29 06:12:56;;;;;;;6.85;3.45;;;;;;;11.27;68.45;100881.59;4963185;28;20922;-74
2022/05/29 06:15:21;;;;;;;8.05;3.55;;;;;;;11.12;69.97;100875.84;4952296;28;20022;-73
2022/05/29 06:17:47;;;;;;;8.57;3.92;;;;;;;11.27;70.16;100876.28;4970144;28;20080;-72
2022/05/29 06:20:13;;;;;;;6.50;4.00;;;;;;;11.33;71.18;100883.69;4953500;28;20834;-73
2022/05/29 06:22:39;;;;;;;5.70;3.45;;;;;;;11.27;70.12;100881.59;4951659;28;20244;-72
2022/05/29 06:25:05;;;;;;;3.53;3.20;;;;;;;11.23;70.23;100882.00;4954056;28;20034;-73
2022/05/29 06:27:34;;;;;;;5.82;3.55;;;;;;;11.27;72.08;100884.25;4972841;28;20489;-71
2022/05/29 06:30:00;;;;;;;4.78;3.53;;;;;;;11.06;72.72;100884.34;4950739;28;20483;-74
2022/05/29 06:32:25;;;;;;;5.30;3.40;;;;;;;11.12;73.83;100888.25;4966428;28;20022;-71
2022/05/29 06:34:51;;;;;;;4.38;3.20;;;;;;;10.96;74.67;100891.44;4970588;28;20018;-73
2022/05/29 06:37:16;;;;;;;6.68;3.35;;;;;;;10.92;75.60;100890.03;4966087;28;20029;-73
2022/05/29 06:39:41;;;;;;;6.53;3.40;;;;;;;10.86;75.48;100891.41;4968792;28;20030;-74
2022/05/29 06:42:07;;;;;;;6.07;3.50;;;;;;;10.76;75.54;100878.16;4949318;28;20128;-73
2022/05/29 06:44:33;;;;;;;6.03;3.72;;;;;;;10.67;75.93;100889.53;4950605;28;20566;-73
2022/05/29 06:47:03;;;;;;;7.07;4.35;;;;;;;10.62;76.25;100895.22;4952387;28;20066;-73
2022/05/29 06:49:29;;;;;;;6.28;3.95;;;;;;;10.59;76.01;100892.84;4949777;28;20014;-72
2022/05/29 06:51:54;;;;;;;5.75;3.60;;;;;;;10.79;76.81;100900.88;4965331;28;21125;-73
2022/05/29 06:54:20;;;;;;;5.13;3.40;;;;;;;10.78;76.37;100901.84;4956660;28;20022;-73
2022/05/29 06:56:45;;;;;;;4.20;3.40;;;;;;;10.82;75.50;100897.94;4953911;28;20095;-74
2022/05/29 06:59:10;;;;;;;8.88;4.22;;;;;;;10.79;76.62;100892.94;4953711;28;20023;-73
2022/05/29 07:07:07;;;;;;;7.00;4.03;;;;;;;11.03;76.24;100878.47;4986278;28;20339;-72
2022/05/29 07:09:36;;;;;;;6.75;4.30;;;;;;;11.08;75.89;100882.38;4952267;28;20049;-74
2022/05/29 07:12:19;;;;;;;5.35;3.75;;;;;;;11.13;76.36;100888.13;4951295;28;20018;-72
2022/05/29 07:14:50;;;;;;;6.65;4.20;;;;;;;11.23;76.69;100880.19;4985724;28;20091;-73
2022/05/29 07:17:15;;;;;;;6.55;4.05;;;;;;;11.40;75.63;100880.50;4984183;28;20014;-71
2022/05/29 07:19:41;;;;;;;6.60;4.72;;;;;;;11.41;76.03;100876.84;4952416;28;20977;-72
2022/05/29 07:22:06;;;;;;;6.55;4.07;;;;;;;11.36;75.11;100879.09;4970254;28;20274;-74
2022/05/29 07:24:33;;;;;;;8.10;3.97;;;;;;;11.46;74.58;100885.22;4961486;28;20018;-73
2022/05/29 07:26:59;;;;;;;5.47;3.97;;;;;;;11.32;75.12;100875.88;4986407;28;20011;-73
2022/05/29 07:29:24;;;;;;;6.32;4.05;;;;;;;11.27;72.78;100875.47;4969773;28;20574;-73
2022/05/29 07:31:51;;;;;;;4.57;4.18;;;;;;;11.27;73.23;100864.88;4985153;28;20026;-74
2022/05/29 07:34:16;;;;;;;9.57;4.47;;;;;;;11.51;73.38;100875.06;4985287;28;20014;-74
2022/05/29 07:36:41;;;;;;;9.07;4.55;;;;;;;11.66;70.55;100881.59;4985835;28;20032;-72
2022/05/29 07:39:07;;;;;;;6.45;4.35;;;;;;;11.71;71.27;100877.69;4969348;28;20103;-72
2022/05/29 07:44:16;;;;;;;8.70;3.88;;;;;;;12.10;69.17;100877.63;4966259;28;20069;-72
2022/05/29 07:46:42;;;;;;;5.93;4.38;;;;;;;12.27;69.51;100874.25;4965536;28;21000;-73
2022/05/29 07:49:07;;;;;;;5.20;4.10;;;;;;;12.18;67.68;100875.13;4953194;28;20018;-73
2022/05/29 07:51:33;;;;;;;5.05;4.40;;;;;;;12.44;69.33;100879.78;4944136;28;20022;-74
2022/05/29 07:53:58;;;;;;;4.38;3.97;;;;;;;12.56;66.15;100883.09;4943966;28;20019;-73
2022/05/29 07:56:25;;;;;;;4.72;4.20;;;;;;;12.54;66.20;100877.94;4945980;28;20444;-73
2022/05/29 07:58:50;;;;;;;6.25;3.97;;;;;;;12.59;67.13;100873.00;4942926;28;20930;-73
2022/05/29 08:01:16;;;;;;;4.45;3.80;;;;;;;12.53;65.09;100878.91;4942148;28;20041;-76
2022/05/29 08:03:41;;;;;;;4.95;4.20;;;;;;;12.57;66.50;100874.97;4938721;28;20348;-73
2022/05/29 08:06:07;;;;;;;4.30;4.00;;;;;;;12.63;68.06;100873.56;4931567;28;20862;-73
2022/05/29 08:08:32;;;;;;;4.97;4.07;;;;;;;12.63;66.04;100874.38;4948770;28;20051;-73
2022/05/29 08:10:58;;;;;;;5.53;4.07;;;;;;;12.58;67.39;100876.66;4929671;28;20281;-74
2022/05/29 08:13:24;;;;;;;3.90;3.60;;;;;;;12.70;66.34;100872.84;4930000;28;20014;-74
2022/05/29 08:15:49;;;;;;;4.25;3.75;;;;;;;12.71;67.38;100866.53;4958375;28;20088;-72
2022/05/29 08:18:14;;;;;;;3.20;3.00;;;;;;;12.78;66.53;100865.94;4949439;28;20007;-72
2022/05/29 08:20:40;;;;;;;4.20;2.95;;;;;;;12.96;66.51;100869.47;4948865;28;20509;-73
2022/05/29 08:23:06;;;;;;;3.63;2.47;;;;;;;13.10;64.88;100869.94;4952873;28;20018;-74
2022/05/29 08:30:59;;;;;;;2.08;1.85;;;;;;;13.25;63.42;100871.06;4961799;28;19911;-74
2022/05/29 08:33:26;;;;;;;2.58;1.90;;;;;;;13.27;63.42;100866.47;4963114;28;20023;-73
2022/05/29 08:35:59;;;;;;;3.17;1.98;;;;;;;13.29;62.85;100864.47;4950239;28;20262;-73
2022/05/29 08:38:24;;;;;;;1.88;1.75;;;;;;;13.34;63.60;100862.22;4945425;28;20321;-73
2022/05/29 08:41:02;;;;;;;4.18;2.47;;;;;;;13.25;62.09;100860.44;4943224;28;20014;-73
2022/05/29 08:43:35;;;;;;;2.30;2.08;;;;;;;13.28;62.80;100856.66;4946208;28;20015;-74
2022/05/29 08:46:04;;;;;;;2.30;2.10;;;;;;;13.69;62.12;100844.59;4979030;28;20447;-74
2022/05/29 08:48:29;;;;;;;1.80;1.58;;;;;;;14.13;60.78;100853.50;4944067;28;20023;-74
2022/05/29 08:51:04;;;;;;;1.65;1.52;;;;;;;14.40;60.08;100850.66;4929014;28;20340;-75
2022/05/29 08:53:49;;;;;;;2.85;1.77;;;;;;;14.78;58.70;100850.34;4967821;28;20018;-74
2022/05/29 08:56:21;;;;;;;2.35;1.58;;;;;;;15.19;57.46;100837.13;4969899;28;20140;-75
2022/05/29 08:58:52;;;;;;;1.73;1.63;;;;;;;15.66;55.94;100840.94;4966260;28;20263;-74
2022/05/29 09:01:28;;;;;;;1.70;1.60;;;;;;;15.82;53.90;100834.81;4963316;28;20026;-73
2022/05/29 09:04:01;;;;;;;1.60;1.50;;;;;;;15.22;52.74;100825.28;4939442;28;20015;-73
2022/05/29 09:06:47;;;;;;;1.97;1.60;;;;;;;14.78;55.63;100834.38;4918252;28;20474;-74
2022/05/29 09:09:28;;;;;;;2.80;1.70;;;;;;;14.41;55.07;100833.72;4932962;28;20015;-74
2022/05/29 09:11:56;;;;;;;5.00;2.00;;;;;;;14.11;57.27;100836.88;4932955;28;20844;-73
2022/05/29 09:14:44;;;;;;;2.90;2.10;;;;;;;13.78;59.44;100836.69;4936501;28;20027;-74
2022/05/29 09:17:13;;;;;;;5.03;3.28;;;;;;;13.48;60.08;100836.94;4970529;28;20058;-73
2022/05/29 09:19:55;;;;;;;4.60;2.60;;;;;;;13.33;63.02;100839.28;4953637;28;20026;-75
2022/05/29 09:22:34;;;;;;;3.75;2.80;;;;;;;13.20;64.34;100837.00;4933046;28;21103;-74
2022/05/29 09:25:21;;;;;;;5.13;3.05;;;;;;;13.23;65.70;100839.34;4968559;28;20030;-74
2022/05/29 09:27:47;;;;;;;5.22;2.97;;;;;;;13.27;67.08;100828.41;4948736;28;20107;-72
2022/05/29 09:30:12;;;;;;;2.80;2.60;;;;;;;13.39;67.63;100830.69;4952619;28;20046;-73
2022/05/29 09:32:43;;;;;;;4.88;3.05;;;;;;;13.52;66.37;100825.03;4953081;28;20010;-73
2022/05/29 09:35:39;;;;;;;4.43;3.17;;;;;;;13.69;64.83;100820.66;4970866;28;20226;-73
2022/05/29 09:38:19;;;;;;;5.90;3.45;;;;;;;14.41;65.20;100816.88;4941022;28;20604;-72
2022/05/29 09:41:04;;;;;;;4.05;3.40;;;;;;;15.16;62.28;100815.28;4968443;28;20018;-73
2022/05/29 09:43:29;;;;;;;5.50;3.13;;;;;;;15.62;58.04;100810.28;4969710;28;21000;-73
2022/05/29 09:45:55;;;;;;;4.72;3.10;;;;;;;16.02;56.51;100808.56;4950845;28;20390;-73
2022/05/29 09:51:08;;;;;;;4.95;3.47;;;;;;;17.34;57.18;100805.22;4970264;28;20609;-73
2022/05/29 09:53:34;;;;;;;4.70;3.10;;;;;;;17.57;53.93;100805.19;4938918;28;20034;-73
2022/05/29 09:56:04;;;;;;;4.10;3.60;;;;;;;18.04;53.86;100810.44;4953416;28;20045;-73
2022/05/29 09:58:44;;;;;;;5.13;4.13;;;;;;;18.29;51.51;100801.09;4950197;28;20914;-73
2022/05/29 10:01:09;;;;;;;4.20;3.40;;;;;;;17.99;46.41;100808.31;4952018;28;20203;-72
2022/05/29 10:03:39;;;;;;;4.80;3.95;;;;;;;17.57;46.69;100807.88;4953859;28;20041;-74
2022/05/29 10:06:34;;;;;;;3.60;3.30;;;;;;;17.20;49.93;100792.63;4937157;28;20019;-75
2022/05/29 10:09:22;;;;;;;3.75;3.42;;;;;;;17.22;49.96;100801.28;4956717;28;20778;-74
2022/05/29 10:11:58;;;;;;;5.00;3.00;;;;;;;17.34;49.35;100802.53;4953806;28;20940;-74
2022/05/29 10:14:38;;;;;;;3.70;3.40;;;;;;;17.34;49.71;100797.19;4955747;28;20761;-74
2022/05/29 10:17:29;;;;;;;5.00;3.83;;;;;;;16.58;49.28;100799.66;4959576;28;20020;-74
2022/05/29 10:19:55;;;;;;;3.10;2.90;;;;;;;15.89;51.27;100803.78;4966976;28;20071;-75
2022/05/29 10:22:27;;;;;;;4.80;2.47;;;;;;;15.29;54.18;100803.13;4968676;28;20018;-73
2022/05/29 10:24:54;;;;;;;2.08;1.83;;;;;;;14.64;57.60;100811.00;4972132;28;20018;-73
2022/05/29 10:27:34;;;;;;;1.67;1.58;;;;;;;14.76;59.57;100799.91;4950952;28;20636;-73
2022/05/29 10:30:10;;;;;;;2.17;2.00;;;;;;;15.22;59.99;100798.63;4951959;28;20002;-73
2022/05/29 10:32:38;;;;;;;1.92;1.67;;;;;;;15.43;59.08;100796.28;4969881;28;20966;-74
2022/05/29 10:35:21;;;;;;;1.30;1.20;;;;;;;15.76;56.58;100798.91;4969670;28;20026;-73
2022/05/29 10:37:46;;;;;;;1.17;1.08;;;;;;;16.28;56.78;100799.47;4947275;28;20206;-73
2022/05/29 10:40:24;;;;;;;1.50;1.30;;;;;;;16.33;56.01;100804.28;4944281;28;20027;-74
2022/05/29 10:42:59;;;;;;;1.17;1.13;;;;;;;17.52;52.30;100803.03;4916158;28;20542;-73
2022/05/29 10:45:27;;;;;;;1.25;1.02;;;;;;;18.30;50.24;100807.28;4935600;28;20214;-74
2022/05/29 10:48:02;;;;;;;1.25;1.15;;;;;;;19.00;47.04;100795.13;4969805;28;20037;-73
2022/05/29 10:50:42;;;;;;;1.63;1.48;;;;;;;19.28;46.92;100793.53;4967889;28;20187;-74
2022/05/29 10:53:33;;;;;;;1.40;1.40;;;;;;;18.88;44.81;100788.59;4955045;28;20080;-74
2022/05/29 10:56:20;;;;;;;1.42;1.33;;;;;;;18.36;45.01;100798.53;4961144;28;20017;-73
2022/05/29 10:58:54;;;;;;;1.30;1.20;;;;;;;17.86;45.80;100801.69;4949677;28;20080;-73
2022/05/29 11:05:01;;;;;;;1.40;1.27;;;;;;;17.24;47.68;100780.56;4950316;28;20050;-72
2022/05/29 11:07:38;;;;;;;1.23;1.13;;;;;;;17.36;48.12;100781.81;4932954;28;20037;-73
2022/05/29 11:10:13;;;;;;;1.45;1.35;;;;;;;17.43;48.84;100784.56;4931455;28;20019;-73
2022/05/29 11:12:57;;;;;;;7.28;1.70;;;;;;;16.98;49.05;100774.56;4943834;28;20134;-74
2022/05/29 11:15:33;;;;;;;2.53;1.77;;;;;;;16.54;51.54;100782.31;4958619;28;20304;-73
2022/05/29 11:18:10;;;;;;;2.00;1.40;;;;;;;16.20;53.64;100781.66;4969267;28;20101;-72
2022/05/29 11:21:05;;;;;;;2.45;1.80;;;;;;;15.68;56.74;100788.28;4968130;28;20007;-73
2022/05/29 11:23:30;;;;;;;;;;;;;;;15.28;61.07;100797.94;4964251;28;20344;-75
2022/05/29 11:26:16;;;;;;;2.75;1.60;;;;;;;14.69;62.15;100800.69;4963173;28;20236;-73
2022/05/29 11:29:03;;;;;;;2.30;1.40;;;;;;;14.22;63.90;100812.66;4961144;28;20044;-74
2022/05/29 11:31:50;;;;;;;1.65;1.30;;;;;;;13.62;67.54;100802.81;4944229;28;20017;-73
2022/05/29 11:34:41;;;;;;;2.00;1.30;;;;;;;13.63;68.85;100802.66;4944806;28;20267;-74
2022/05/29 11:37:09;;;;;;;1.50;1.40;;;;;;;13.49;68.85;100795.25;4931908;28;20019;-73
2022/05/29 11:39:35;;;;;;;2.08;1.30;;;;;;;13.37;69.41;100784.84;4941702;28;21079;-74
2022/05/29 11:42:07;;;;;;;1.90;1.00;;;;;;;13.42;68.74;100781.72;4942920;28;20126;-74
2022/05/29 11:44:44;;;;;;;2.35;1.20;;;;;;;13.52;68.53;100776.31;4961170;28;20006;-74
2022/05/29 11:53:52;;;;;;;1.95;1.35;;;;;;;14.12;68.32;100766.69;4963487;28;20366;-73
2022/05/29 11:56:26;;;;;;;;;;;;;;;14.53;68.88;100758.84;4966493;28;20023;-73
2022/05/29 11:59:21;;;;;;;1.38;1.30;;;;;;;14.89;66.27;100747.94;4962117;28;20390;-73
2022/05/29 12:01:52;;;;;;;3.05;1.27;;;;;;;14.88;65.42;100738.31;4963717;28;20018;-74
2022/05/29 12:04:19;;;;;;;1.55;1.10;;;;;;;15.25;62.41;100728.97;4929428;28;20352;-73
2022/05/29 12:06:56;;;;;;;2.10;1.10;;;;;;;15.45;61.02;100734.78;4961845;28;20142;-74
2022/05/29 12:09:24;;;;;;;0.70;0.70;;;;;;;15.90;61.10;100719.19;4929975;28;20017;-73
2022/05/29 12:12:01;;;;;;;1.70;0.85;;;;;;;16.08;59.43;100727.81;4929406;28;20096;-74
2022/05/29 12:14:34;;;;;;;1.13;1.00;;;;;;;16.25;61.02;100725.88;4931946;28;20087;-74
2022/05/29 12:17:14;;;;;;;1.85;0.90;;;;;;;16.31;59.10;100722.53;4954133;28;20029;-74
2022/05/29 12:19:55;;;;;;;0.93;0.80;;;;;;;16.34;59.50;100724.00;4989956;28;20010;-72